This is the latest recevied weather packets stored in our database for station/object N9BLE. If no packets are shown the sender has not sent any weather packets the latest 1 day(s).
| Time | Temp. | Humidity | Pressure | Rain* | Wind** | Luminosity | Snow |
|---|---|---|---|---|---|---|---|
| 1778070837 | 7.22° C | 59% | 1016.9 hPa | 0 mm | - | 116 W/m² | - |
| 1778068416 | 3.33° C | 83% | 1016.3 hPa | 0 mm | - | 31 W/m² | - |
| 1778066903 | 2.78° C | 77% | 1016 hPa | 0 mm | - | 28 W/m² | - |
| 1778065693 | 2.78° C | 78% | 1016.1 hPa | 0 mm | - | 14 W/m² | - |
| 1778063876 | 2.78° C | 77% | 1016 hPa | 0 mm | - | 1 W/m² | - |
| 1778063573 | 2.78° C | 76% | 1016 hPa | 0 mm | - | 0 W/m² | - |
| 1778062665 | 3.33° C | 74% | 1015.7 hPa | 0 mm | - | 0 W/m² | - |
| 1778061456 | 3.33° C | 73% | 1015.3 hPa | 0 mm | - | 0 W/m² | - |
| 1778060849 | 3.89° C | 71% | 1015.3 hPa | 0 mm | - | 0 W/m² | - |
| 1778060246 | 3.89° C | 69% | 1015.4 hPa | 0 mm | - | 0 W/m² | - |
| 1778059035 | 3.89° C | 70% | 1015.4 hPa | 0 mm | - | 0 W/m² | - |
| 1778058430 | 4.44° C | 69% | 1015.4 hPa | 0 mm | - | 0 W/m² | - |
| 1778057824 | 3.89° C | 67% | 1015.2 hPa | 0 mm | - | 0 W/m² | - |
| 1778056913 | 3.89° C | 68% | 1015.4 hPa | 0 mm | - | 0 W/m² | - |
| 1778056308 | 4.44° C | 67% | 1015.5 hPa | 0 mm | - | 0 W/m² | - |
| 1778056005 | 4.44° C | 67% | 1015.2 hPa | 0 mm | - | 0 W/m² | - |
| 1778055705 | 4.44° C | 67% | 1015.1 hPa | 0 mm | - | 0 W/m² | - |
| 1778055101 | 4.44° C | 67% | 1015.1 hPa | 0 mm | - | 0 W/m² | - |
| 1778054495 | 4.44° C | 65% | 1014.9 hPa | 0 mm | - | 0 W/m² | - |
| 1778054193 | 4.44° C | 66% | 1015.2 hPa | 0 mm | - | 0 W/m² | - |
| 1778053889 | 4.44° C | 66% | 1015.1 hPa | 0 mm | - | 0 W/m² | - |
| 1778053587 | 5° C | 66% | 1015.1 hPa | 0 mm | - | 0 W/m² | - |
| 1778053284 | 5° C | 67% | 1015.1 hPa | 0 mm | - | 0 W/m² | - |
| 1778052982 | 5° C | 64% | 1015 hPa | 0 mm | - | 0 W/m² | - |
| 1778052679 | 5° C | 64% | 1014.9 hPa | 0 mm | - | 0 W/m² | - |
* Rain latest hour (hover to see other rain measurements)
** Current wind speed in m/s (hover to see current wind gust speed)